Terminal Aerodrome Forecast
Issued by NWS Upton, NY

Home | Current Version | Previous Version | Text Only | Print | Product List | Glossary On
Versions: 1 2 3 4 5 6 7 8 9 10 11 12 13 14 15 16 17 18 19 20 21 22 23 24 25 26 27 28 29 30 31 32
000
FTUS41 KOKX 231330 AAA
TAFJFK
TAF AMD
KJFK 231330Z 2313/2418 04006KT P6SM FEW025 BKN250
     FM231700 VRB03KT P6SM BKN150
     FM231900 18008KT P6SM BKN150
     FM240300 VRB04KT P6SM BKN120
     FM240700 03008KT P6SM SCT060 BKN100
     FM241200 02010G17KT P6SM SCT025 BKN100=

USA.gov is the U.S. government's official web portal to all federal, state and local government web resources and services.